Time,TemperatureF,DewpointF,PressureIn,WindDirection,WindDirectionDegrees,WindSpeedMPH,WindSpeedGustMPH,Humidity,HourlyPrecipIn,Conditions,Clouds,dailyrainin,SoftwareType,DateUTC
2014-12-28 00:04:00,71.1,69.0,30.16,ENE,67,0.0,0.0,93,0.00,,---,0.00,VWS V15.00,2014-12-28 05:04:00,
2014-12-28 00:10:00,71.1,69.0,30.16,ENE,67,0.0,1.0,93,0.00,,---,0.00,VWS V15.00,2014-12-28 05:10:00,
2014-12-28 00:15:00,71.1,69.3,30.16,ENE,67,0.0,0.0,94,0.00,,---,0.00,VWS V15.00,2014-12-28 05:15:00,
2014-12-28 00:20:00,71.2,69.4,30.16,ENE,67,0.0,2.0,94,0.00,,---,0.00,VWS V15.00,2014-12-28 05:20:00,
2014-12-28 00:25:00,71.1,69.3,30.15,ENE,67,0.0,1.0,94,0.00,,---,0.00,VWS V15.00,2014-12-28 05:25:00,
2014-12-28 00:30:00,71.0,69.2,30.15,ENE,67,1.0,2.0,94,0.00,,---,0.00,VWS V15.00,2014-12-28 05:30:00,
2014-12-28 00:35:00,71.0,69.2,30.16,ENE,67,0.0,1.0,94,0.00,,---,0.00,VWS V15.00,2014-12-28 05:35:00,
2014-12-28 00:40:00,70.9,69.1,30.15,ENE,67,0.0,0.0,94,0.00,,---,0.00,VWS V15.00,2014-12-28 05:40:00,
2014-12-28 00:45:00,70.8,69.0,30.15,ENE,67,0.0,0.0,94,0.00,,---,0.00,VWS V15.00,2014-12-28 05:45:00,
2014-12-28 00:50:00,70.8,69.3,30.16,ENE,67,0.0,0.0,95,0.00,,---,0.00,VWS V15.00,2014-12-28 05:50:00,
2014-12-28 00:55:00,70.7,69.2,30.16,ENE,67,0.0,0.0,95,0.00,,---,0.00,VWS V15.00,2014-12-28 05:55:00,
2014-12-28 01:00:00,70.6,69.1,30.16,ENE,67,0.0,0.0,95,0.00,,---,0.00,VWS V15.00,2014-12-28 06:00:00,
2014-12-28 01:05:00,70.6,69.1,30.16,ENE,67,0.0,0.0,95,0.00,,---,0.00,VWS V15.00,2014-12-28 06:05:00,
2014-12-28 01:10:00,70.6,69.1,30.15,ENE,67,0.0,1.0,95,0.00,,---,0.00,VWS V15.00,2014-12-28 06:10:00,
2014-12-28 01:15:00,70.6,69.1,30.16,ENE,67,0.0,0.0,95,0.00,,---,0.00,VWS V15.00,2014-12-28 06:15:00,
2014-12-28 01:20:00,70.5,69.0,30.16,ENE,67,0.0,0.0,95,0.00,,---,0.00,VWS V15.00,2014-12-28 06:20:00,
2014-12-28 01:26:00,70.6,69.1,30.15,ENE,67,0.0,0.0,95,0.00,,---,0.00,VWS V15.00,2014-12-28 06:26:00,
2014-12-28 01:31:00,70.5,69.0,30.15,ENE,67,0.0,1.0,95,0.00,,---,0.00,VWS V15.00,2014-12-28 06:31:00,
2014-12-28 01:36:00,70.4,68.9,30.15,ENE,67,0.0,0.0,95,0.00,,---,0.00,VWS V15.00,2014-12-28 06:36:00,
2014-12-28 01:41:00,70.3,68.8,30.15,ENE,67,0.0,0.0,95,0.00,,---,0.00,VWS V15.00,2014-12-28 06:41:00,
2014-12-28 01:46:00,70.3,68.8,30.15,ENE,67,0.0,2.0,95,0.00,,---,0.00,VWS V15.00,2014-12-28 06:46:00,
2014-12-28 01:51:00,70.2,68.7,30.15,ENE,67,0.0,1.0,95,0.00,,---,0.00,VWS V15.00,2014-12-28 06:51:00,
2014-12-28 01:56:00,70.3,68.8,30.15,ENE,67,0.0,1.0,95,0.00,,---,0.00,VWS V15.00,2014-12-28 06:56:00,
2014-12-28 02:01:00,70.2,68.7,30.15,ENE,67,0.0,1.0,95,0.00,,---,0.00,VWS V15.00,2014-12-28 07:01:00,
2014-12-28 02:06:00,70.2,68.7,30.15,ENE,67,1.0,2.0,95,0.00,,---,0.00,VWS V15.00,2014-12-28 07:06:00,
2014-12-28 02:11:00,70.1,68.6,30.15,ENE,67,2.0,2.0,95,0.00,,---,0.00,VWS V15.00,2014-12-28 07:11:00,
2014-12-28 02:16:00,70.0,68.5,30.14,ENE,67,0.0,2.0,95,0.00,,---,0.00,VWS V15.00,2014-12-28 07:16:00,
2014-12-28 02:21:00,69.9,68.4,30.14,ENE,67,0.0,1.0,95,0.00,,---,0.00,VWS V15.00,2014-12-28 07:21:00,
2014-12-28 02:26:00,69.9,68.4,30.14,ENE,67,0.0,2.0,95,0.00,,---,0.00,VWS V15.00,2014-12-28 07:26:00,
2014-12-28 02:31:00,69.9,68.4,30.14,ENE,67,0.0,2.0,95,0.00,,---,0.00,VWS V15.00,2014-12-28 07:31:00,
2014-12-28 02:36:00,69.8,68.6,30.14,ENE,67,0.0,1.0,96,0.00,,---,0.00,VWS V15.00,2014-12-28 07:36:00,
2014-12-28 02:41:00,69.8,68.6,30.13,ENE,67,0.0,1.0,96,0.00,,---,0.00,VWS V15.00,2014-12-28 07:41:00,
2014-12-28 02:47:00,69.8,68.6,30.13,ENE,67,0.0,1.0,96,0.00,,---,0.00,VWS V15.00,2014-12-28 07:47:00,
2014-12-28 02:52:00,69.8,68.6,30.13,ENE,67,0.0,0.0,96,0.00,,---,0.00,VWS V15.00,2014-12-28 07:52:00,
2014-12-28 02:57:00,69.7,68.5,30.13,ENE,67,0.0,1.0,96,0.00,,---,0.00,VWS V15.00,2014-12-28 07:57:00,
2014-12-28 03:02:00,69.7,68.5,30.13,ENE,67,0.0,1.0,96,0.00,,---,0.00,VWS V15.00,2014-12-28 08:02:00,
2014-12-28 03:07:00,69.7,68.5,30.13,ENE,67,0.0,0.0,96,0.00,,---,0.00,VWS V15.00,2014-12-28 08:07:00,
2014-12-28 03:12:00,69.7,68.5,30.13,ENE,67,1.0,1.0,96,0.00,,---,0.00,VWS V15.00,2014-12-28 08:12:00,
2014-12-28 03:17:00,69.6,68.4,30.13,ENE,67,0.0,0.0,96,0.00,,---,0.00,VWS V15.00,2014-12-28 08:17:00,
2014-12-28 03:22:00,69.6,68.4,30.13,ENE,67,0.0,0.0,96,0.00,,---,0.00,VWS V15.00,2014-12-28 08:22:00,
2014-12-28 03:27:00,69.5,68.3,30.13,ENE,67,0.0,0.0,96,0.00,,---,0.00,VWS V15.00,2014-12-28 08:27:00,
2014-12-28 03:32:00,69.5,68.3,30.14,ENE,67,0.0,0.0,96,0.00,,---,0.00,VWS V15.00,2014-12-28 08:32:00,
2014-12-28 03:38:00,69.5,68.3,30.14,ENE,67,0.0,0.0,96,0.00,,---,0.00,VWS V15.00,2014-12-28 08:38:00,
2014-12-28 03:43:00,69.4,68.2,30.13,ENE,67,0.0,0.0,96,0.00,,---,0.00,VWS V15.00,2014-12-28 08:43:00,
2014-12-28 03:48:00,69.2,67.7,30.13,ENE,67,0.0,0.0,95,0.00,,---,0.00,VWS V15.00,2014-12-28 08:48:00,
2014-12-28 03:53:00,69.2,68.0,30.13,ENE,67,0.0,0.0,96,0.00,,---,0.00,VWS V15.00,2014-12-28 08:53:00,
2014-12-28 03:58:00,69.1,67.9,30.13,ENE,67,0.0,0.0,96,0.00,,---,0.00,VWS V15.00,2014-12-28 08:58:00,
2014-12-28 04:03:00,69.0,67.8,30.13,ENE,67,0.0,0.0,96,0.00,,---,0.00,VWS V15.00,2014-12-28 09:03:00,
2014-12-28 04:08:00,68.8,67.6,30.12,ENE,67,0.0,0.0,96,0.00,,---,0.00,VWS V15.00,2014-12-28 09:08:00,
2014-12-28 04:13:00,68.7,67.2,30.12,ENE,67,0.0,0.0,95,0.00,,---,0.00,VWS V15.00,2014-12-28 09:13:00,
2014-12-28 04:18:00,68.5,67.0,30.13,ENE,67,0.0,0.0,95,0.00,,---,0.00,VWS V15.00,2014-12-28 09:18:00,
2014-12-28 04:23:00,68.4,67.2,30.13,ENE,67,0.0,0.0,96,0.00,,---,0.00,VWS V15.00,2014-12-28 09:23:00,
2014-12-28 04:28:00,68.3,67.1,30.13,ENE,67,0.0,0.0,96,0.00,,---,0.00,VWS V15.00,2014-12-28 09:28:00,
2014-12-28 04:33:00,68.1,66.9,30.12,ENE,67,0.0,0.0,96,0.00,,---,0.00,VWS V15.00,2014-12-28 09:33:00,
2014-12-28 04:38:00,68.0,66.8,30.13,ENE,67,0.0,0.0,96,0.00,,---,0.00,VWS V15.00,2014-12-28 09:38:00,
2014-12-28 04:43:00,67.9,66.7,30.12,ENE,67,0.0,0.0,96,0.00,,---,0.00,VWS V15.00,2014-12-28 09:43:00,
2014-12-28 04:48:00,67.7,66.5,30.12,ENE,67,0.0,0.0,96,0.00,,---,0.00,VWS V15.00,2014-12-28 09:48:00,
2014-12-28 04:53:00,67.5,66.3,30.12,ENE,67,0.0,0.0,96,0.00,,---,0.00,VWS V15.00,2014-12-28 09:53:00,
2014-12-28 04:58:00,67.4,66.2,30.12,ENE,67,0.0,0.0,96,0.00,,---,0.00,VWS V15.00,2014-12-28 09:58:00,
2014-12-28 05:03:00,67.3,66.1,30.12,ENE,67,0.0,0.0,96,0.00,,---,0.00,VWS V15.00,2014-12-28 10:03:00,
2014-12-28 05:08:00,67.4,66.2,30.12,ENE,67,0.0,0.0,96,0.00,,---,0.00,VWS V15.00,2014-12-28 10:08:00,
2014-12-28 05:13:00,67.3,66.1,30.13,ENE,67,0.0,0.0,96,0.00,,---,0.00,VWS V15.00,2014-12-28 10:13:00,
2014-12-28 05:18:00,67.2,66.0,30.13,ENE,67,0.0,0.0,96,0.00,,---,0.00,VWS V15.00,2014-12-28 10:18:00,
2014-12-28 05:23:00,67.1,65.9,30.12,ENE,67,0.0,0.0,96,0.00,,---,0.00,VWS V15.00,2014-12-28 10:23:00,
2014-12-28 05:28:00,67.0,65.8,30.12,ENE,67,0.0,0.0,96,0.00,,---,0.00,VWS V15.00,2014-12-28 10:28:00,
2014-12-28 05:33:00,66.8,65.6,30.13,ENE,67,0.0,0.0,96,0.00,,---,0.00,VWS V15.00,2014-12-28 10:33:00,
2014-12-28 05:38:00,66.7,65.5,30.12,ENE,67,0.0,0.0,96,0.00,,---,0.00,VWS V15.00,2014-12-28 10:38:00,
2014-12-28 05:43:00,66.6,65.4,30.13,ENE,67,0.0,0.0,96,0.00,,---,0.00,VWS V15.00,2014-12-28 10:43:00,
2014-12-28 05:48:00,66.5,65.3,30.13,ENE,67,0.0,0.0,96,0.00,,---,0.00,VWS V15.00,2014-12-28 10:48:00,
2014-12-28 05:53:00,66.3,65.1,30.13,ENE,67,0.0,0.0,96,0.00,,---,0.00,VWS V15.00,2014-12-28 10:53:00,
2014-12-28 05:58:00,66.1,64.9,30.13,ENE,67,0.0,0.0,96,0.00,,---,0.00,VWS V15.00,2014-12-28 10:58:00,
2014-12-28 06:03:00,65.9,64.7,30.13,ENE,67,0.0,0.0,96,0.00,,---,0.00,VWS V15.00,2014-12-28 11:03:00,
2014-12-28 06:08:00,65.8,64.6,30.12,ENE,67,0.0,0.0,96,0.00,,---,0.00,VWS V15.00,2014-12-28 11:08:00,
2014-12-28 06:13:00,65.7,64.5,30.13,ENE,67,0.0,0.0,96,0.00,,---,0.00,VWS V15.00,2014-12-28 11:13:00,
2014-12-28 06:18:00,65.6,64.4,30.13,ENE,67,0.0,0.0,96,0.00,,---,0.00,VWS V15.00,2014-12-28 11:18:00,
2014-12-28 06:23:00,65.6,64.4,30.13,ENE,67,0.0,0.0,96,0.00,,---,0.00,VWS V15.00,2014-12-28 11:23:00,
2014-12-28 06:28:00,65.6,64.4,30.13,ENE,67,0.0,0.0,96,0.00,,---,0.00,VWS V15.00,2014-12-28 11:28:00,
2014-12-28 06:33:00,65.5,64.3,30.13,ENE,67,0.0,0.0,96,0.00,,---,0.00,VWS V15.00,2014-12-28 11:33:00,
2014-12-28 06:38:00,65.4,64.2,30.13,ENE,67,0.0,0.0,96,0.00,,---,0.00,VWS V15.00,2014-12-28 11:38:00,
2014-12-28 06:43:00,65.3,64.1,30.13,ENE,67,0.0,0.0,96,0.00,,---,0.00,VWS V15.00,2014-12-28 11:43:00,
2014-12-28 06:48:00,65.3,64.4,30.14,ENE,67,0.0,0.0,97,0.00,,---,0.00,VWS V15.00,2014-12-28 11:48:00,
2014-12-28 06:53:00,65.4,64.5,30.14,ENE,67,0.0,0.0,97,0.00,,---,0.00,VWS V15.00,2014-12-28 11:53:00,
2014-12-28 06:58:00,65.4,64.5,30.14,ENE,67,0.0,0.0,97,0.00,,---,0.00,VWS V15.00,2014-12-28 11:58:00,
2014-12-28 07:03:00,65.2,64.3,30.14,ENE,67,0.0,0.0,97,0.00,,---,0.00,VWS V15.00,2014-12-28 12:03:00,
2014-12-28 07:08:00,65.1,64.2,30.14,ENE,67,0.0,0.0,97,0.00,,---,0.00,VWS V15.00,2014-12-28 12:08:00,
2014-12-28 07:13:00,64.9,63.7,30.14,ENE,67,0.0,0.0,96,0.00,,---,0.00,VWS V15.00,2014-12-28 12:13:00,
2014-12-28 07:18:00,64.8,63.6,30.14,ENE,67,0.0,0.0,96,0.00,,---,0.00,VWS V15.00,2014-12-28 12:18:00,
2014-12-28 07:23:00,64.9,64.0,30.15,ENE,67,0.0,0.0,97,0.00,,---,0.00,VWS V15.00,2014-12-28 12:23:00,
2014-12-28 07:28:00,65.2,64.3,30.15,ENE,67,0.0,0.0,97,0.00,,---,0.00,VWS V15.00,2014-12-28 12:28:00,
2014-12-28 07:33:00,65.4,64.5,30.15,ENE,66,0.0,0.0,97,0.00,,---,0.00,VWS V15.00,2014-12-28 12:33:00,
2014-12-28 07:38:00,65.4,64.5,30.15,ENE,67,0.0,0.0,97,0.00,,---,0.00,VWS V15.00,2014-12-28 12:38:00,
2014-12-28 07:43:00,65.4,64.5,30.16,ENE,67,0.0,0.0,97,0.00,,---,0.00,VWS V15.00,2014-12-28 12:43:00,
2014-12-28 07:48:00,65.4,64.5,30.16,ENE,67,0.0,1.0,97,0.00,,---,0.00,VWS V15.00,2014-12-28 12:48:00,
2014-12-28 07:53:00,65.4,64.5,30.16,ENE,67,0.0,0.0,97,0.00,,---,0.00,VWS V15.00,2014-12-28 12:53:00,
2014-12-28 07:58:00,65.4,64.5,30.16,ENE,67,0.0,0.0,97,0.00,,---,0.00,VWS V15.00,2014-12-28 12:58:00,
2014-12-28 08:03:00,65.4,64.5,30.16,ENE,67,0.0,0.0,97,0.00,,---,0.00,VWS V15.00,2014-12-28 13:03:00,
2014-12-28 08:08:00,65.4,64.5,30.16,ENE,67,0.0,0.0,97,0.00,,---,0.00,VWS V15.00,2014-12-28 13:08:00,
2014-12-28 08:13:00,65.5,64.6,30.16,ENE,67,0.0,0.0,97,0.00,,---,0.00,VWS V15.00,2014-12-28 13:13:00,
2014-12-28 08:18:00,65.8,65.2,30.17,ENE,66,0.0,0.0,98,0.00,,---,0.00,VWS V15.00,2014-12-28 13:18:00,
2014-12-28 08:23:00,66.3,65.7,30.17,ENE,67,0.0,0.0,98,0.00,,---,0.00,VWS V15.00,2014-12-28 13:23:00,
2014-12-28 08:28:00,66.7,66.1,30.17,ENE,67,0.0,0.0,98,0.00,,---,0.00,VWS V15.00,2014-12-28 13:28:00,
2014-12-28 08:33:00,66.7,66.1,30.17,ENE,67,0.0,1.0,98,0.00,,---,0.00,VWS V15.00,2014-12-28 13:33:00,
2014-12-28 08:38:00,66.8,66.2,30.17,ENE,67,0.0,1.0,98,0.00,,---,0.00,VWS V15.00,2014-12-28 13:38:00,
2014-12-28 08:43:00,67.0,66.4,30.17,ENE,67,0.0,1.0,98,0.00,,---,0.00,VWS V15.00,2014-12-28 13:43:00,
2014-12-28 08:48:00,67.2,66.6,30.17,ENE,67,0.0,1.0,98,0.00,,---,0.00,VWS V15.00,2014-12-28 13:48:00,
2014-12-28 08:53:00,67.5,66.9,30.18,ENE,67,0.0,1.0,98,0.00,,---,0.00,VWS V15.00,2014-12-28 13:53:00,
2014-12-28 08:58:00,67.8,67.2,30.18,ENE,67,0.0,1.0,98,0.00,,---,0.00,VWS V15.00,2014-12-28 13:58:00,
2014-12-28 09:03:00,67.9,67.3,30.18,ENE,67,0.0,1.0,98,0.00,,---,0.00,VWS V15.00,2014-12-28 14:03:00,
2014-12-28 09:08:00,68.1,67.5,30.18,ENE,66,0.0,1.0,98,0.00,,---,0.00,VWS V15.00,2014-12-28 14:08:00,
2014-12-28 09:13:00,68.3,67.7,30.18,ENE,67,0.0,1.0,98,0.00,,---,0.00,VWS V15.00,2014-12-28 14:13:00,
2014-12-28 09:18:00,68.7,68.1,30.18,ENE,67,0.0,0.0,98,0.00,,---,0.00,VWS V15.00,2014-12-28 14:18:00,
2014-12-28 09:23:00,69.0,68.4,30.18,ENE,67,0.0,0.0,98,0.00,,---,0.00,VWS V15.00,2014-12-28 14:23:00,
2014-12-28 09:28:00,69.2,68.6,30.18,ENE,67,0.0,1.0,98,0.00,,---,0.00,VWS V15.00,2014-12-28 14:28:00,
2014-12-28 09:33:00,69.5,68.9,30.18,ENE,67,0.0,0.0,98,0.00,,---,0.00,VWS V15.00,2014-12-28 14:33:00,
2014-12-28 09:38:00,70.1,69.5,30.18,ENE,67,0.0,2.0,98,0.00,,---,0.00,VWS V15.00,2014-12-28 14:38:00,
2014-12-28 09:43:00,70.4,69.8,30.18,ENE,67,0.0,1.0,98,0.00,,---,0.00,VWS V15.00,2014-12-28 14:43:00,
2014-12-28 09:48:00,70.7,70.1,30.18,ENE,67,0.0,1.0,98,0.00,,---,0.00,VWS V15.00,2014-12-28 14:48:00,